Pagrindinis puslapis
METAR-TAF:

METAR-TAF

Oro uostai :

Managva, Nikaragva

platuma: 12-09N, ilguma: 086-10W, Aukštis: 50 m

Dabartinis oras

Ataskaita buvo paskelbta 21 minutes, ne 16:00 UTC
Vėjas 10 kt iš Rytų
Temperatūra 30°C
Drėgmė 66%
Slėgis 1016 hPa
Matomumas 10 km arba daugiau
Mažai debesys ne aukštis 2300 ft

METAR: MNMG 071600Z 08010KT 9999 FEW023 30/23 Q1015 A2999 NOSIG

Laikas: 10:21 (16:21 UTC)

Prognozė

Ataskaita buvo paskelbta 6 valandos ir 58 minutes, ne 09:23 UTC
Prognozė galioja nuo 07 metu 12 UTC su 08 metu 12 UTC
Vėjas 8 kt iš Rytų
Matomumas 10 km arba daugiau
Mažai debesys ne aukštis 2000 ft
Laikinai
nuo 07 metu 14 UTC su 07 metu 23 UTC
Vėjas 12 kt iš Rytų su gūsio iki 22 kt
Mažai debesys ne aukštis 2300 ft
Išsisklaidę debesys ne aukštis 30000 ft
Tapsmas
nuo 08 metu 00 UTC su 08 metu 03 UTC
Vėjas 8 kt iš Rytų/Pietryčių
Mažai debesys ne aukštis 2200 ft

TAF: MNMG 070923Z 0712/0812 10008KT 9999 FEW020 TEMPO 0714/0723 08012G22KT FEW023 SCT300 BECMG 0800/0803 12008KT FEW022

Orai ataskaitas ir orų prognozės (METAR, TAF).

turimą stotys yra geltonos ir raudonos taškus žemėlapyje.

Perkelti pele per norėdami pamatyti stoties vardą.

Tada spustelėkite, norėdami matyti oro stebėjimo ir prognozės.

Norėdami pakeisti žemėlapį: spustelėkite ant žalios mygtukų su juodo kryžiaus žemyn,; žalią mygtuką su brūkšneliu, jei norite nutolinti; arba žalių rodyklių gretimoms žemėlapius.


METAR-TAF: